Pagina principală
METAR-TAF:

METAR-TAF

Aeroporturi :

Johnson County Executive Airport

Olathe, Kansas, Statele Unite ale Americii

Latitudine: 38-51-00N, longitudine: 094-44-21W, elevație: 334 m

Observații meteo curente

Raportul a fost făcut în urmă cu 18 de minute, la 00:53 UTC
Vânt 10 kt de la Nord-vest cu rafale de până la 19 kt
Temperatură 20°C
Umiditate 60%
Presiune 1007 hPa
Vizibilitate: 16.1 km
Nori împrăștiați la o înălțime de 3500 picior

METAR: KOJC 220053Z 31010G19KT 10SM SCT035 20/12 A2974 RMK AO2 SLP059 T02000122

Ora: 20:11 (01:11 UTC)


TAF: lipsă

Observații și prognoze meteo pentru peste 4.000 de aeroporturi (rapoarte METAR și TAF).

Stațiile disponibile sunt reprezentate pe hartă prin puncte galbene și roșii.

Țineți indicatorul mouse-ului pe punctul dorit pentru a vedea denumirea stației.

Apoi, faceți clic pentru a vedea observațiile și prognozele meteorologice.

Pentru a schimba harta: Pentru mărire, faceți clic pe butoanele verzi cu cruce neagră; pentru micșorare, pe butonul verde cu o liniuță; pentru hărți învecinate, pe săgețile verzi.


METAR-TAF: